sensor_id;sensor_type;location;lat;lon;timestamp;pressure;altitude;pressure_sealevel;temperature;humidity
81641;BME280;71053;50.722;-1.944;2023-07-13T00:01:31;101128.00;;;16.91;81.14
81641;BME280;71053;50.722;-1.944;2023-07-13T00:03:57;101128.40;;;17.02;81.02
81641;BME280;71053;50.722;-1.944;2023-07-13T00:06:22;101128.27;;;17.10;80.54
81641;BME280;71053;50.722;-1.944;2023-07-13T00:08:47;101122.63;;;17.15;80.60
81641;BME280;71053;50.722;-1.944;2023-07-13T00:11:12;101122.73;;;17.27;79.87
81641;BME280;71053;50.722;-1.944;2023-07-13T00:13:37;101122.08;;;17.15;80.16
81641;BME280;71053;50.722;-1.944;2023-07-13T00:16:03;101119.09;;;16.91;81.43
81641;BME280;71053;50.722;-1.944;2023-07-13T00:18:28;101120.81;;;16.79;81.75
81641;BME280;71053;50.722;-1.944;2023-07-13T00:20:53;101117.46;;;17.02;81.27
81641;BME280;71053;50.722;-1.944;2023-07-13T00:23:18;101116.37;;;16.97;80.97
81641;BME280;71053;50.722;-1.944;2023-07-13T00:25:43;101115.11;;;17.00;80.94
81641;BME280;71053;50.722;-1.944;2023-07-13T00:28:08;101116.49;;;17.09;80.79
81641;BME280;71053;50.722;-1.944;2023-07-13T00:30:33;101117.52;;;17.01;80.82
81641;BME280;71053;50.722;-1.944;2023-07-13T00:32:59;101113.12;;;17.10;80.54
81641;BME280;71053;50.722;-1.944;2023-07-13T00:35:26;101111.61;;;17.15;80.21
81641;BME280;71053;50.722;-1.944;2023-07-13T00:37:49;101110.84;;;17.07;80.87
81641;BME280;71053;50.722;-1.944;2023-07-13T00:40:16;101105.80;;;17.30;79.81
81641;BME280;71053;50.722;-1.944;2023-07-13T00:42:40;101106.87;;;17.37;79.76
81641;BME280;71053;50.722;-1.944;2023-07-13T00:46:02;101111.17;;;17.38;79.53
81641;BME280;71053;50.722;-1.944;2023-07-13T00:47:30;101112.13;;;17.30;79.78
81641;BME280;71053;50.722;-1.944;2023-07-13T00:49:55;101113.95;;;17.44;79.36
81641;BME280;71053;50.722;-1.944;2023-07-13T00:52:20;101109.88;;;17.29;79.95
81641;BME280;71053;50.722;-1.944;2023-07-13T00:54:46;101102.85;;;17.16;80.72
81641;BME280;71053;50.722;-1.944;2023-07-13T00:57:14;101104.19;;;17.29;79.76
81641;BME280;71053;50.722;-1.944;2023-07-13T00:59:37;101100.77;;;17.21;80.17
81641;BME280;71053;50.722;-1.944;2023-07-13T01:02:01;101102.52;;;17.27;79.94
81641;BME280;71053;50.722;-1.944;2023-07-13T01:04:26;101101.16;;;17.20;79.96
81641;BME280;71053;50.722;-1.944;2023-07-13T01:06:52;101104.61;;;17.30;79.89
81641;BME280;71053;50.722;-1.944;2023-07-13T01:09:17;101103.31;;;17.16;80.01
81641;BME280;71053;50.722;-1.944;2023-07-13T01:11:42;101101.09;;;17.13;80.35
81641;BME280;71053;50.722;-1.944;2023-07-13T01:14:07;101102.67;;;17.06;80.75
81641;BME280;71053;50.722;-1.944;2023-07-13T01:16:34;101101.75;;;16.97;81.18
81641;BME280;71053;50.722;-1.944;2023-07-13T01:18:57;101099.39;;;17.10;80.95
81641;BME280;71053;50.722;-1.944;2023-07-13T01:21:22;101096.13;;;17.19;80.11
81641;BME280;71053;50.722;-1.944;2023-07-13T01:23:47;101095.78;;;17.06;80.53
81641;BME280;71053;50.722;-1.944;2023-07-13T01:26:13;101094.90;;;16.95;80.98
81641;BME280;71053;50.722;-1.944;2023-07-13T01:28:38;101095.10;;;16.85;81.59
81641;BME280;71053;50.722;-1.944;2023-07-13T01:31:04;101097.06;;;16.88;80.85
81641;BME280;71053;50.722;-1.944;2023-07-13T01:33:28;101102.29;;;16.75;81.99
81641;BME280;71053;50.722;-1.944;2023-07-13T01:35:54;101103.60;;;16.92;81.09
81641;BME280;71053;50.722;-1.944;2023-07-13T01:38:21;101102.07;;;16.84;81.21
81641;BME280;71053;50.722;-1.944;2023-07-13T01:40:44;101103.38;;;16.92;81.34
81641;BME280;71053;50.722;-1.944;2023-07-13T01:43:09;101103.51;;;16.84;81.52
81641;BME280;71053;50.722;-1.944;2023-07-13T01:45:34;101104.93;;;16.60;82.04
81641;BME280;71053;50.722;-1.944;2023-07-13T01:47:59;101103.41;;;16.63;82.36
81641;BME280;71053;50.722;-1.944;2023-07-13T01:50:25;101104.28;;;16.65;82.30
81641;BME280;71053;50.722;-1.944;2023-07-13T01:52:50;101103.13;;;16.63;82.49
81641;BME280;71053;50.722;-1.944;2023-07-13T01:55:15;101099.81;;;16.42;83.03
81641;BME280;71053;50.722;-1.944;2023-07-13T01:57:40;101104.14;;;16.63;82.45
81641;BME280;71053;50.722;-1.944;2023-07-13T02:00:08;101103.05;;;16.46;82.72
81641;BME280;71053;50.722;-1.944;2023-07-13T02:02:31;101103.51;;;16.62;82.27
81641;BME280;71053;50.722;-1.944;2023-07-13T02:04:56;101102.12;;;16.60;82.21
81641;BME280;71053;50.722;-1.944;2023-07-13T02:07:21;101101.59;;;16.80;81.18
81641;BME280;71053;50.722;-1.944;2023-07-13T02:09:47;101102.42;;;16.59;81.71
81641;BME280;71053;50.722;-1.944;2023-07-13T02:12:12;101099.95;;;16.68;81.58
81641;BME280;71053;50.722;-1.944;2023-07-13T02:14:37;101100.94;;;16.73;81.36
81641;BME280;71053;50.722;-1.944;2023-07-13T02:17:03;101100.09;;;16.45;81.84
81641;BME280;71053;50.722;-1.944;2023-07-13T02:19:27;101095.23;;;16.45;81.66
81641;BME280;71053;50.722;-1.944;2023-07-13T02:21:53;101098.25;;;16.46;81.92
81641;BME280;71053;50.722;-1.944;2023-07-13T02:24:18;101099.42;;;16.45;82.02
81641;BME280;71053;50.722;-1.944;2023-07-13T02:26:44;101103.88;;;16.60;81.35
81641;BME280;71053;50.722;-1.944;2023-07-13T02:29:09;101097.42;;;16.54;81.38
81641;BME280;71053;50.722;-1.944;2023-07-13T02:31:34;101099.11;;;16.55;81.05
81641;BME280;71053;50.722;-1.944;2023-07-13T02:33:59;101097.12;;;16.30;81.85
81641;BME280;71053;50.722;-1.944;2023-07-13T02:36:24;101101.66;;;16.55;80.75
81641;BME280;71053;50.722;-1.944;2023-07-13T02:38:50;101099.91;;;16.36;81.14
81641;BME280;71053;50.722;-1.944;2023-07-13T02:41:15;101100.50;;;16.49;81.14
81641;BME280;71053;50.722;-1.944;2023-07-13T02:43:40;101098.45;;;16.33;81.42
81641;BME280;71053;50.722;-1.944;2023-07-13T02:46:05;101096.24;;;16.31;81.98
81641;BME280;71053;50.722;-1.944;2023-07-13T02:48:31;101095.87;;;16.14;82.10
81641;BME280;71053;50.722;-1.944;2023-07-13T02:50:56;101098.98;;;16.33;81.79
81641;BME280;71053;50.722;-1.944;2023-07-13T02:53:21;101099.98;;;16.31;81.53
81641;BME280;71053;50.722;-1.944;2023-07-13T02:55:46;101099.01;;;16.50;80.79
81641;BME280;71053;50.722;-1.944;2023-07-13T02:58:11;101099.84;;;16.37;81.30
81641;BME280;71053;50.722;-1.944;2023-07-13T03:00:39;101101.37;;;16.68;80.15
81641;BME280;71053;50.722;-1.944;2023-07-13T03:03:02;101103.46;;;16.67;80.49
81641;BME280;71053;50.722;-1.944;2023-07-13T03:05:27;101100.17;;;16.77;79.76
81641;BME280;71053;50.722;-1.944;2023-07-13T03:07:53;101097.34;;;16.65;79.97
81641;BME280;71053;50.722;-1.944;2023-07-13T03:10:18;101094.32;;;16.53;80.46
81641;BME280;71053;50.722;-1.944;2023-07-13T03:12:43;101093.11;;;16.67;80.06
81641;BME280;71053;50.722;-1.944;2023-07-13T03:15:09;101098.96;;;16.57;80.99
81641;BME280;71053;50.722;-1.944;2023-07-13T03:17:34;101096.14;;;16.60;80.45
81641;BME280;71053;50.722;-1.944;2023-07-13T03:19:59;101094.95;;;16.48;81.05
81641;BME280;71053;50.722;-1.944;2023-07-13T03:22:24;101095.83;;;16.57;81.09
81641;BME280;71053;50.722;-1.944;2023-07-13T03:24:49;101094.59;;;16.23;82.63
81641;BME280;71053;50.722;-1.944;2023-07-13T03:27:15;101098.75;;;16.57;81.69
81641;BME280;71053;50.722;-1.944;2023-07-13T03:29:40;101102.35;;;16.57;81.26
81641;BME280;71053;50.722;-1.944;2023-07-13T03:32:06;101103.43;;;16.53;81.33
81641;BME280;71053;50.722;-1.944;2023-07-13T03:34:30;101100.73;;;16.47;81.65
81641;BME280;71053;50.722;-1.944;2023-07-13T03:36:56;101102.72;;;16.60;81.15
81641;BME280;71053;50.722;-1.944;2023-07-13T03:39:21;101099.13;;;16.65;80.79
81641;BME280;71053;50.722;-1.944;2023-07-13T03:41:46;101098.77;;;16.68;81.16
81641;BME280;71053;50.722;-1.944;2023-07-13T03:44:11;101100.38;;;16.83;80.35
81641;BME280;71053;50.722;-1.944;2023-07-13T03:46:36;101102.19;;;16.93;79.98
81641;BME280;71053;50.722;-1.944;2023-07-13T03:49:03;101099.96;;;16.70;80.65
81641;BME280;71053;50.722;-1.944;2023-07-13T03:51:27;101102.28;;;16.76;80.84
81641;BME280;71053;50.722;-1.944;2023-07-13T03:53:52;101102.67;;;16.94;80.14
81641;BME280;71053;50.722;-1.944;2023-07-13T03:56:18;101108.28;;;16.94;79.98
81641;BME280;71053;50.722;-1.944;2023-07-13T03:58:44;101106.98;;;17.01;79.72
81641;BME280;71053;50.722;-1.944;2023-07-13T04:01:09;101111.74;;;16.96;80.16
81641;BME280;71053;50.722;-1.944;2023-07-13T04:03:34;101113.37;;;17.07;79.79
81641;BME280;71053;50.722;-1.944;2023-07-13T04:05:59;101115.60;;;17.15;79.30
81641;BME280;71053;50.722;-1.944;2023-07-13T04:08:23;101121.33;;;17.08;79.73
81641;BME280;71053;50.722;-1.944;2023-07-13T04:10:49;101120.67;;;17.23;78.78
81641;BME280;71053;50.722;-1.944;2023-07-13T04:13:14;101121.57;;;17.20;79.18
81641;BME280;71053;50.722;-1.944;2023-07-13T04:15:39;101125.75;;;16.94;79.73
81641;BME280;71053;50.722;-1.944;2023-07-13T04:18:04;101126.84;;;16.78;80.29
81641;BME280;71053;50.722;-1.944;2023-07-13T04:20:29;101126.89;;;16.84;80.48
81641;BME280;71053;50.722;-1.944;2023-07-13T04:22:55;101127.84;;;16.81;80.44
81641;BME280;71053;50.722;-1.944;2023-07-13T04:25:21;101130.66;;;16.95;79.84
81641;BME280;71053;50.722;-1.944;2023-07-13T04:27:45;101135.94;;;16.95;79.80
81641;BME280;71053;50.722;-1.944;2023-07-13T04:30:10;101135.17;;;17.08;79.52
81641;BME280;71053;50.722;-1.944;2023-07-13T04:32:35;101134.28;;;17.17;79.02
81641;BME280;71053;50.722;-1.944;2023-07-13T04:35:00;101135.92;;;17.10;79.50
81641;BME280;71053;50.722;-1.944;2023-07-13T04:37:26;101132.77;;;17.23;79.03
81641;BME280;71053;50.722;-1.944;2023-07-13T04:39:52;101133.95;;;17.27;78.66
81641;BME280;71053;50.722;-1.944;2023-07-13T04:42:17;101135.35;;;17.29;78.56
81641;BME280;71053;50.722;-1.944;2023-07-13T04:44:47;101140.53;;;17.20;79.00
81641;BME280;71053;50.722;-1.944;2023-07-13T04:47:08;101142.96;;;17.20;79.05
81641;BME280;71053;50.722;-1.944;2023-07-13T04:49:33;101146.32;;;17.10;79.51
81641;BME280;71053;50.722;-1.944;2023-07-13T04:51:58;101148.98;;;16.87;80.03
81641;BME280;71053;50.722;-1.944;2023-07-13T04:54:23;101148.27;;;16.87;80.23
81641;BME280;71053;50.722;-1.944;2023-07-13T04:56:48;101147.43;;;17.11;79.65
81641;BME280;71053;50.722;-1.944;2023-07-13T04:59:13;101146.01;;;16.97;79.65
81641;BME280;71053;50.722;-1.944;2023-07-13T05:01:39;101141.70;;;16.83;80.56
81641;BME280;71053;50.722;-1.944;2023-07-13T05:04:04;101141.55;;;17.11;79.84
81641;BME280;71053;50.722;-1.944;2023-07-13T05:06:29;101142.03;;;17.00;79.73
81641;BME280;71053;50.722;-1.944;2023-07-13T05:08:54;101143.73;;;16.92;80.14
81641;BME280;71053;50.722;-1.944;2023-07-13T05:11:19;101142.64;;;17.02;79.98
81641;BME280;71053;50.722;-1.944;2023-07-13T05:13:44;101142.88;;;17.03;79.81
81641;BME280;71053;50.722;-1.944;2023-07-13T05:16:10;101145.00;;;17.09;79.58
81641;BME280;71053;50.722;-1.944;2023-07-13T05:18:35;101144.78;;;17.07;79.67
81641;BME280;71053;50.722;-1.944;2023-07-13T05:21:02;101147.41;;;17.23;79.35
81641;BME280;71053;50.722;-1.944;2023-07-13T05:23:25;101147.52;;;17.11;79.54
81641;BME280;71053;50.722;-1.944;2023-07-13T05:25:50;101146.06;;;17.22;79.33
81641;BME280;71053;50.722;-1.944;2023-07-13T05:28:16;101146.78;;;17.21;79.45
81641;BME280;71053;50.722;-1.944;2023-07-13T05:30:45;101148.72;;;17.28;79.26
81641;BME280;71053;50.722;-1.944;2023-07-13T05:33:06;101153.81;;;17.34;78.87
81641;BME280;71053;50.722;-1.944;2023-07-13T05:35:31;101157.25;;;17.18;79.51
81641;BME280;71053;50.722;-1.944;2023-07-13T05:37:57;101159.60;;;17.06;80.23
81641;BME280;71053;50.722;-1.944;2023-07-13T05:40:22;101157.70;;;17.28;79.47
81641;BME280;71053;50.722;-1.944;2023-07-13T05:42:47;101155.23;;;17.25;79.37
81641;BME280;71053;50.722;-1.944;2023-07-13T05:45:12;101155.15;;;17.38;78.62
81641;BME280;71053;50.722;-1.944;2023-07-13T05:47:37;101158.14;;;17.27;79.15
81641;BME280;71053;50.722;-1.944;2023-07-13T05:50:03;101164.97;;;17.37;78.68
81641;BME280;71053;50.722;-1.944;2023-07-13T05:52:28;101166.98;;;17.29;79.10
81641;BME280;71053;50.722;-1.944;2023-07-13T05:54:53;101170.57;;;17.23;79.32
81641;BME280;71053;50.722;-1.944;2023-07-13T05:57:18;101175.49;;;17.28;79.18
81641;BME280;71053;50.722;-1.944;2023-07-13T05:59:43;101179.35;;;17.26;79.43
81641;BME280;71053;50.722;-1.944;2023-07-13T06:02:09;101180.29;;;17.39;78.96
81641;BME280;71053;50.722;-1.944;2023-07-13T06:04:34;101177.73;;;17.46;78.81
81641;BME280;71053;50.722;-1.944;2023-07-13T06:06:59;101177.31;;;17.31;79.35
81641;BME280;71053;50.722;-1.944;2023-07-13T06:09:24;101181.92;;;17.34;79.03
81641;BME280;71053;50.722;-1.944;2023-07-13T06:11:49;101184.07;;;17.46;78.99
81641;BME280;71053;50.722;-1.944;2023-07-13T06:14:14;101187.42;;;17.40;78.99
81641;BME280;71053;50.722;-1.944;2023-07-13T06:16:40;101187.87;;;17.37;79.43
81641;BME280;71053;50.722;-1.944;2023-07-13T06:19:05;101192.94;;;17.50;79.03
81641;BME280;71053;50.722;-1.944;2023-07-13T06:21:30;101196.46;;;17.57;78.84
81641;BME280;71053;50.722;-1.944;2023-07-13T06:23:55;101193.13;;;17.63;78.84
81641;BME280;71053;50.722;-1.944;2023-07-13T06:26:21;101201.94;;;17.57;79.02
81641;BME280;71053;50.722;-1.944;2023-07-13T06:28:45;101204.37;;;17.65;78.64
81641;BME280;71053;50.722;-1.944;2023-07-13T06:31:12;101210.64;;;17.67;78.78
81641;BME280;71053;50.722;-1.944;2023-07-13T06:33:36;101213.95;;;17.59;78.90
81641;BME280;71053;50.722;-1.944;2023-07-13T06:36:02;101212.51;;;17.42;79.75
81641;BME280;71053;50.722;-1.944;2023-07-13T06:38:26;101218.87;;;17.24;80.74
81641;BME280;71053;50.722;-1.944;2023-07-13T06:40:52;101215.02;;;17.15;80.97
81641;BME280;71053;50.722;-1.944;2023-07-13T06:43:16;101212.81;;;17.45;80.04
81641;BME280;71053;50.722;-1.944;2023-07-13T06:45:45;101217.25;;;17.53;80.02
81641;BME280;71053;50.722;-1.944;2023-07-13T06:48:06;101223.07;;;17.64;79.34
81641;BME280;71053;50.722;-1.944;2023-07-13T06:50:31;101224.16;;;17.70;79.15
81641;BME280;71053;50.722;-1.944;2023-07-13T06:52:57;101225.37;;;17.82;78.86
81641;BME280;71053;50.722;-1.944;2023-07-13T06:55:22;101228.70;;;17.89;78.33
81641;BME280;71053;50.722;-1.944;2023-07-13T06:57:48;101234.23;;;17.69;79.04
81641;BME280;71053;50.722;-1.944;2023-07-13T07:00:14;101239.09;;;17.76;78.94
81641;BME280;71053;50.722;-1.944;2023-07-13T07:02:38;101241.58;;;17.45;79.69
81641;BME280;71053;50.722;-1.944;2023-07-13T07:05:04;101246.78;;;17.66;78.99
81641;BME280;71053;50.722;-1.944;2023-07-13T07:07:28;101244.76;;;17.81;78.65
81641;BME280;71053;50.722;-1.944;2023-07-13T07:09:53;101247.67;;;17.97;77.86
81641;BME280;71053;50.722;-1.944;2023-07-13T07:12:18;101249.42;;;17.81;77.82
81641;BME280;71053;50.722;-1.944;2023-07-13T07:14:44;101252.38;;;17.88;77.02
81641;BME280;71053;50.722;-1.944;2023-07-13T07:17:09;101252.97;;;17.90;77.36
81641;BME280;71053;50.722;-1.944;2023-07-13T07:19:35;101251.71;;;17.77;77.74
81641;BME280;71053;50.722;-1.944;2023-07-13T07:22:00;101253.91;;;17.93;77.17
81641;BME280;71053;50.722;-1.944;2023-07-13T07:24:25;101253.98;;;18.27;76.28
81641;BME280;71053;50.722;-1.944;2023-07-13T07:26:51;101255.71;;;18.07;76.36
81641;BME280;71053;50.722;-1.944;2023-07-13T07:29:16;101256.72;;;18.40;75.30
81641;BME280;71053;50.722;-1.944;2023-07-13T07:31:41;101256.35;;;18.37;75.27
81641;BME280;71053;50.722;-1.944;2023-07-13T07:34:06;101259.69;;;18.18;75.60
81641;BME280;71053;50.722;-1.944;2023-07-13T07:36:31;101263.08;;;18.34;75.11
81641;BME280;71053;50.722;-1.944;2023-07-13T07:38:56;101266.50;;;18.26;75.37
81641;BME280;71053;50.722;-1.944;2023-07-13T07:41:21;101267.90;;;18.25;74.79
81641;BME280;71053;50.722;-1.944;2023-07-13T07:43:46;101268.20;;;18.45;74.82
81641;BME280;71053;50.722;-1.944;2023-07-13T07:46:11;101271.66;;;18.33;73.71
81641;BME280;71053;50.722;-1.944;2023-07-13T07:48:37;101271.81;;;18.24;73.44
81641;BME280;71053;50.722;-1.944;2023-07-13T07:51:02;101274.25;;;18.10;74.52
81641;BME280;71053;50.722;-1.944;2023-07-13T07:53:27;101276.76;;;17.97;75.48
81641;BME280;71053;50.722;-1.944;2023-07-13T07:55:53;101281.75;;;18.06;75.83
81641;BME280;71053;50.722;-1.944;2023-07-13T07:58:18;101280.46;;;18.25;76.17
81641;BME280;71053;50.722;-1.944;2023-07-13T08:00:43;101282.52;;;17.94;77.57
81641;BME280;71053;50.722;-1.944;2023-07-13T08:03:08;101278.84;;;18.23;76.35
81641;BME280;71053;50.722;-1.944;2023-07-13T08:05:35;101280.53;;;18.18;76.53
81641;BME280;71053;50.722;-1.944;2023-07-13T08:07:58;101278.95;;;18.61;75.56
81641;BME280;71053;50.722;-1.944;2023-07-13T08:10:23;101273.00;;;18.75;73.94
81641;BME280;71053;50.722;-1.944;2023-07-13T08:12:48;101274.85;;;18.65;73.19
81641;BME280;71053;50.722;-1.944;2023-07-13T08:15:15;101276.78;;;18.60;71.24
81641;BME280;71053;50.722;-1.944;2023-07-13T08:17:39;101276.38;;;18.69;71.14
81641;BME280;71053;50.722;-1.944;2023-07-13T08:20:05;101273.07;;;18.71;71.93
81641;BME280;71053;50.722;-1.944;2023-07-13T08:22:29;101270.93;;;18.85;71.34
81641;BME280;71053;50.722;-1.944;2023-07-13T08:24:54;101271.51;;;18.98;70.42
81641;BME280;71053;50.722;-1.944;2023-07-13T08:27:19;101265.39;;;18.85;70.24
81641;BME280;71053;50.722;-1.944;2023-07-13T08:29:44;101264.91;;;18.69;70.92
81641;BME280;71053;50.722;-1.944;2023-07-13T08:32:09;101264.73;;;18.79;69.50
81641;BME280;71053;50.722;-1.944;2023-07-13T08:34:34;101262.36;;;18.66;70.73
81641;BME280;71053;50.722;-1.944;2023-07-13T08:36:59;101259.65;;;18.71;69.90
81641;BME280;71053;50.722;-1.944;2023-07-13T08:39:25;101260.56;;;18.63;69.18
81641;BME280;71053;50.722;-1.944;2023-07-13T08:41:55;101265.03;;;18.87;70.38
81641;BME280;71053;50.722;-1.944;2023-07-13T08:44:20;101267.75;;;18.91;69.67
81641;BME280;71053;50.722;-1.944;2023-07-13T08:46:40;101269.90;;;18.80;69.59
81641;BME280;71053;50.722;-1.944;2023-07-13T08:49:09;101270.45;;;19.12;69.73
81641;BME280;71053;50.722;-1.944;2023-07-13T08:51:38;101269.46;;;19.00;69.45
81641;BME280;71053;50.722;-1.944;2023-07-13T08:53:59;101274.82;;;18.57;70.53
81641;BME280;71053;50.722;-1.944;2023-07-13T08:56:24;101274.51;;;18.89;70.52
81641;BME280;71053;50.722;-1.944;2023-07-13T08:58:48;101274.39;;;19.11;69.52
81641;BME280;71053;50.722;-1.944;2023-07-13T09:01:15;101267.97;;;19.01;69.92
81641;BME280;71053;50.722;-1.944;2023-07-13T09:03:42;101267.48;;;19.11;69.82
81641;BME280;71053;50.722;-1.944;2023-07-13T09:06:03;101270.51;;;19.21;69.54
81641;BME280;71053;50.722;-1.944;2023-07-13T09:08:38;101272.49;;;19.29;70.01
81641;BME280;71053;50.722;-1.944;2023-07-13T09:10:55;101270.85;;;19.43;69.93
81641;BME280;71053;50.722;-1.944;2023-07-13T09:13:24;101271.55;;;19.51;69.23
81641;BME280;71053;50.722;-1.944;2023-07-13T09:15:43;101273.23;;;19.06;69.85
81641;BME280;71053;50.722;-1.944;2023-07-13T09:18:10;101270.04;;;19.40;69.55
81641;BME280;71053;50.722;-1.944;2023-07-13T09:20:34;101269.04;;;19.64;68.83
81641;BME280;71053;50.722;-1.944;2023-07-13T09:22:59;101273.75;;;19.67;69.40
81641;BME280;71053;50.722;-1.944;2023-07-13T09:25:26;101275.95;;;19.44;69.31
81641;BME280;71053;50.722;-1.944;2023-07-13T09:27:47;101273.99;;;19.29;69.91
81641;BME280;71053;50.722;-1.944;2023-07-13T09:30:21;101271.82;;;19.09;70.11
81641;BME280;71053;50.722;-1.944;2023-07-13T09:32:38;101271.80;;;19.23;69.09
81641;BME280;71053;50.722;-1.944;2023-07-13T09:35:09;101270.47;;;19.55;68.55
81641;BME280;71053;50.722;-1.944;2023-07-13T09:37:31;101276.80;;;19.73;67.99
81641;BME280;71053;50.722;-1.944;2023-07-13T09:39:53;101277.76;;;19.68;68.51
81641;BME280;71053;50.722;-1.944;2023-07-13T09:42:19;101281.41;;;19.70;69.33
81641;BME280;71053;50.722;-1.944;2023-07-13T09:44:51;101281.25;;;20.02;68.69
81641;BME280;71053;50.722;-1.944;2023-07-13T09:47:15;101283.09;;;19.86;69.12
81641;BME280;71053;50.722;-1.944;2023-07-13T09:49:35;101284.14;;;20.09;68.31
81641;BME280;71053;50.722;-1.944;2023-07-13T09:51:59;101285.49;;;19.94;68.21
81641;BME280;71053;50.722;-1.944;2023-07-13T09:54:24;101285.79;;;19.88;68.61
81641;BME280;71053;50.722;-1.944;2023-07-13T09:56:48;101285.25;;;20.07;66.73
81641;BME280;71053;50.722;-1.944;2023-07-13T09:59:18;101286.99;;;19.89;66.63
81641;BME280;71053;50.722;-1.944;2023-07-13T10:01:38;101291.69;;;20.12;66.96
81641;BME280;71053;50.722;-1.944;2023-07-13T10:04:11;101296.13;;;19.90;67.60
81641;BME280;71053;50.722;-1.944;2023-07-13T10:06:28;101293.05;;;19.91;67.92
81641;BME280;71053;50.722;-1.944;2023-07-13T10:08:56;101295.83;;;19.91;67.65
81641;BME280;71053;50.722;-1.944;2023-07-13T10:11:20;101297.04;;;20.06;67.71
81641;BME280;71053;50.722;-1.944;2023-07-13T10:13:46;101292.70;;;20.30;66.58
81641;BME280;71053;50.722;-1.944;2023-07-13T10:16:09;101296.30;;;20.24;67.03
81641;BME280;71053;50.722;-1.944;2023-07-13T10:18:40;101296.87;;;20.49;66.52
81641;BME280;71053;50.722;-1.944;2023-07-13T10:21:10;101307.43;;;20.17;68.25
81641;BME280;71053;50.722;-1.944;2023-07-13T10:23:25;101300.35;;;20.62;66.67
81641;BME280;71053;50.722;-1.944;2023-07-13T10:25:49;101305.97;;;20.61;65.94
81641;BME280;71053;50.722;-1.944;2023-07-13T10:28:22;101306.07;;;20.45;66.20
81641;BME280;71053;50.722;-1.944;2023-07-13T10:30:41;101312.60;;;20.51;65.47
81641;BME280;71053;50.722;-1.944;2023-07-13T10:33:10;101314.29;;;20.37;65.42
81641;BME280;71053;50.722;-1.944;2023-07-13T10:35:29;101310.49;;;20.45;64.32
81641;BME280;71053;50.722;-1.944;2023-07-13T10:37:58;101312.36;;;20.47;64.55
81641;BME280;71053;50.722;-1.944;2023-07-13T10:40:23;101310.22;;;20.57;61.99
81641;BME280;71053;50.722;-1.944;2023-07-13T10:42:46;101318.24;;;20.37;61.66
81641;BME280;71053;50.722;-1.944;2023-07-13T10:45:14;101315.05;;;20.63;62.42
81641;BME280;71053;50.722;-1.944;2023-07-13T10:47:34;101311.67;;;20.96;62.60
81641;BME280;71053;50.722;-1.944;2023-07-13T10:50:00;101312.01;;;20.78;62.15
81641;BME280;71053;50.722;-1.944;2023-07-13T10:52:40;101310.78;;;20.78;61.71
81641;BME280;71053;50.722;-1.944;2023-07-13T10:54:49;101309.86;;;21.06;61.02
81641;BME280;71053;50.722;-1.944;2023-07-13T10:57:17;101304.94;;;21.15;62.00
81641;BME280;71053;50.722;-1.944;2023-07-13T10:59:39;101303.26;;;20.74;63.22
81641;BME280;71053;50.722;-1.944;2023-07-13T11:02:13;101309.50;;;20.90;62.78
81641;BME280;71053;50.722;-1.944;2023-07-13T11:04:40;101313.25;;;20.63;63.60
81641;BME280;71053;50.722;-1.944;2023-07-13T11:06:58;101315.07;;;20.96;62.88
81641;BME280;71053;50.722;-1.944;2023-07-13T11:09:33;101321.91;;;20.74;63.98
81641;BME280;71053;50.722;-1.944;2023-07-13T11:11:45;101326.82;;;20.40;65.24
81641;BME280;71053;50.722;-1.944;2023-07-13T11:14:27;101325.06;;;20.69;64.91
81641;BME280;71053;50.722;-1.944;2023-07-13T11:16:42;101325.29;;;20.73;64.86
81641;BME280;71053;50.722;-1.944;2023-07-13T11:21:26;101330.69;;;20.83;64.40
81641;BME280;71053;50.722;-1.944;2023-07-13T11:23:53;101337.95;;;20.62;65.04
81641;BME280;71053;50.722;-1.944;2023-07-13T11:28:42;101334.26;;;20.32;66.56
81641;BME280;71053;50.722;-1.944;2023-07-13T11:31:13;101333.81;;;20.43;66.21
81641;BME280;71053;50.722;-1.944;2023-07-13T11:36:00;101330.56;;;20.21;67.39
81641;BME280;71053;50.722;-1.944;2023-07-13T11:38:23;101328.36;;;20.39;66.40
81641;BME280;71053;50.722;-1.944;2023-07-13T11:40:48;101324.51;;;20.37;66.57
81641;BME280;71053;50.722;-1.944;2023-07-13T11:43:14;101320.46;;;20.33;66.28
81641;BME280;71053;50.722;-1.944;2023-07-13T11:45:36;101324.54;;;19.92;67.43
81641;BME280;71053;50.722;-1.944;2023-07-13T11:48:02;101320.39;;;20.17;67.13
81641;BME280;71053;50.722;-1.944;2023-07-13T11:50:27;101318.71;;;20.27;66.80
81641;BME280;71053;50.722;-1.944;2023-07-13T11:52:53;101314.87;;;20.27;66.74
81641;BME280;71053;50.722;-1.944;2023-07-13T11:55:19;101319.53;;;20.25;66.23
81641;BME280;71053;50.722;-1.944;2023-07-13T11:57:45;101311.19;;;20.41;66.23
81641;BME280;71053;50.722;-1.944;2023-07-13T12:00:14;101320.61;;;20.43;66.56
81641;BME280;71053;50.722;-1.944;2023-07-13T12:02:35;101313.78;;;20.72;65.41
81641;BME280;71053;50.722;-1.944;2023-07-13T12:04:59;101301.33;;;21.06;64.48
81641;BME280;71053;50.722;-1.944;2023-07-13T12:07:23;101295.52;;;21.07;64.55
81641;BME280;71053;50.722;-1.944;2023-07-13T12:09:48;101296.25;;;20.89;65.00
81641;BME280;71053;50.722;-1.944;2023-07-13T12:12:16;101293.17;;;21.24;63.00
81641;BME280;71053;50.722;-1.944;2023-07-13T12:14:39;101292.92;;;20.36;65.74
81641;BME280;71053;50.722;-1.944;2023-07-13T12:17:09;101295.20;;;20.92;63.38
81641;BME280;71053;50.722;-1.944;2023-07-13T12:19:30;101298.65;;;20.83;62.91
81641;BME280;71053;50.722;-1.944;2023-07-13T12:21:58;101292.67;;;20.78;63.09
81641;BME280;71053;50.722;-1.944;2023-07-13T12:24:22;101296.76;;;20.63;63.58
81641;BME280;71053;50.722;-1.944;2023-07-13T12:26:51;101291.71;;;20.93;63.15
81641;BME280;71053;50.722;-1.944;2023-07-13T12:29:16;101287.62;;;21.07;62.79
81641;BME280;71053;50.722;-1.944;2023-07-13T12:31:41;101293.77;;;21.19;61.34
81641;BME280;71053;50.722;-1.944;2023-07-13T12:34:07;101285.56;;;21.16;61.73
81641;BME280;71053;50.722;-1.944;2023-07-13T12:36:31;101295.40;;;21.02;61.87